Flugplatz Pennewitz

Für EDOS sind keine METAR/TAF Berichte vorhanden.
Es werden die Flugwettermeldungen vom Flugplatz Erfurt in 35 km Entfernung angezeigt.

Bericht für EDDE

vom 14.08. um 07:20 UTC

variable Windrichtung mit 2 kt

Sichtweite 10 km oder mehr

schwacher Regen

keine Wolken

Temperatur 20.0°C

Taupunkt 18.0°C

Luftfeuchtigkeit 88%

Luftdruck 1014 hPa

keine wesentliche Wetteränderung innerhalb den nächsten 2 Stunden zu erwarten

EDDE 140720Z VRB02KT 9999 -RA NSC 20/18 Q1014 NOSIG

Prognose für EDDE

vom 14.08. um 05:00 UTC

Zwischen 06:00 UTC und 06:00 UTC

Wind 6 kt aus 260°

Sichtweite 10 km oder mehr

keine signifikanten Wettererscheinungen

keine Wolken


Zwischen 12:00 UTC und 21:00 UTC zeitweise mit einer Wahrscheinlichkeit von 40%

Wind 15 kt aus 240° in Böen 30 kt

Code: TSRA

aufgebrochene Bewölkung in 3000 ft


Zwischen 21:00 UTC und 06:00 UTC zeitweise mit einer Wahrscheinlichkeit von 30%

Sichtweite 3500 m

schwacher Regen

feuchter Dunst

aufgebrochene Bewölkung in 1400 ft

TAF EDDE 140500Z 1406/1506 26006KT CAVOK PROB40 TEMPO 1412/1421 24015G30KT TSRA BKN030CB PROB30 TEMPO 1421/1506 3500 -RA BR BKN014
Impressum